createdAt,value
2017-10-02T00:00:58.636Z,13.46
2017-10-02T00:03:26.151Z,13.46
2017-10-02T00:05:53.666Z,13.43
2017-10-02T00:08:21.134Z,13.41
2017-10-02T00:10:48.610Z,13.42
2017-10-02T00:13:16.064Z,13.42
2017-10-02T00:15:43.595Z,13.40
2017-10-02T00:18:11.156Z,13.33
2017-10-02T00:20:38.713Z,13.34
2017-10-02T00:23:06.184Z,13.32
2017-10-02T00:25:33.744Z,13.32
2017-10-02T00:28:01.227Z,13.28
2017-10-02T00:30:28.752Z,13.29
2017-10-02T00:32:56.214Z,13.22
2017-10-02T00:35:23.764Z,13.21
2017-10-02T00:37:51.222Z,13.19
2017-10-02T00:40:18.775Z,13.15
2017-10-02T00:42:46.233Z,13.17
2017-10-02T00:45:13.688Z,13.08
2017-10-02T00:47:41.170Z,13.02
2017-10-02T00:50:08.642Z,12.96
2017-10-02T00:52:36.121Z,12.90
2017-10-02T00:55:03.576Z,12.89
2017-10-02T00:57:31.044Z,12.83
2017-10-02T00:59:58.544Z,12.71
2017-10-02T01:02:25.998Z,12.67
2017-10-02T01:04:53.478Z,12.60
2017-10-02T01:07:20.943Z,12.60
2017-10-02T01:09:48.489Z,12.57
2017-10-02T01:12:15.960Z,12.55
2017-10-02T01:14:43.431Z,12.54
2017-10-02T01:17:10.895Z,12.51
2017-10-02T01:19:38.420Z,12.51
2017-10-02T01:22:05.899Z,12.48
2017-10-02T01:24:33.428Z,12.52
2017-10-02T01:27:00.897Z,12.52
2017-10-02T01:29:28.373Z,12.52
2017-10-02T01:31:55.846Z,12.53
2017-10-02T01:34:23.331Z,12.56
2017-10-02T01:36:50.786Z,12.58
2017-10-02T01:39:18.246Z,12.59
2017-10-02T01:41:45.726Z,12.59
2017-10-02T01:44:13.180Z,12.66
2017-10-02T01:46:40.658Z,12.63
2017-10-02T01:49:08.125Z,12.61
2017-10-02T01:51:35.602Z,12.58
2017-10-02T01:54:03.056Z,12.60
2017-10-02T01:56:30.573Z,12.60
2017-10-02T01:58:58.128Z,12.64
2017-10-02T02:01:25.682Z,12.63
2017-10-02T02:03:53.146Z,12.68
2017-10-02T02:06:20.602Z,12.68
2017-10-02T02:08:48.078Z,12.71
2017-10-02T02:11:15.535Z,12.73
2017-10-02T02:13:42.997Z,12.66
2017-10-02T02:16:10.461Z,12.68
2017-10-02T02:18:37.924Z,12.62
2017-10-02T02:21:05.434Z,12.65
2017-10-02T02:23:32.999Z,12.64
2017-10-02T02:26:00.462Z,12.66
2017-10-02T02:28:28.019Z,12.70
2017-10-02T02:30:55.515Z,12.65
2017-10-02T02:33:22.967Z,12.65
2017-10-02T02:35:50.444Z,12.64
2017-10-02T02:38:17.915Z,12.62
2017-10-02T02:40:45.380Z,12.59
2017-10-02T02:43:12.862Z,12.55
2017-10-02T02:45:40.315Z,12.54
2017-10-02T02:48:07.799Z,12.55
2017-10-02T02:50:35.260Z,12.50
2017-10-02T02:53:02.720Z,12.52
2017-10-02T02:55:30.247Z,12.48
2017-10-02T02:57:57.702Z,12.46
2017-10-02T03:00:25.188Z,12.47
2017-10-02T03:02:52.658Z,12.45
2017-10-02T03:05:20.127Z,12.44
2017-10-02T03:07:47.600Z,12.42
2017-10-02T03:10:15.086Z,12.44
2017-10-02T03:12:42.561Z,12.45
2017-10-02T03:15:10.014Z,12.39
2017-10-02T03:17:37.518Z,12.48
2017-10-02T03:20:04.988Z,12.45
2017-10-02T03:22:32.500Z,12.41
2017-10-02T03:24:59.987Z,12.35
2017-10-02T03:27:27.504Z,12.33
2017-10-02T03:29:54.973Z,12.32
2017-10-02T03:32:22.435Z,12.29
2017-10-02T03:34:49.902Z,12.31
2017-10-02T03:37:17.374Z,12.29
2017-10-02T03:39:44.840Z,12.26
2017-10-02T03:42:12.334Z,12.29
2017-10-02T03:44:39.810Z,12.32
2017-10-02T03:47:07.267Z,12.28
2017-10-02T03:49:34.734Z,12.31
2017-10-02T03:52:02.212Z,12.33
2017-10-02T03:54:29.699Z,12.40
2017-10-02T03:56:57.183Z,12.41
2017-10-02T03:59:24.647Z,12.43
2017-10-02T04:01:52.143Z,12.54
2017-10-02T04:04:19.647Z,12.47
2017-10-02T04:06:47.189Z,12.41
2017-10-02T04:09:14.646Z,12.40
2017-10-02T04:11:42.123Z,12.36
2017-10-02T04:14:09.687Z,12.36
2017-10-02T04:16:37.137Z,12.31
2017-10-02T04:19:04.599Z,12.31
2017-10-02T04:21:32.054Z,12.33
2017-10-02T04:23:59.573Z,12.33
2017-10-02T04:26:27.027Z,12.33
2017-10-02T04:28:54.485Z,12.35
2017-10-02T04:31:21.954Z,12.35
2017-10-02T04:33:49.407Z,12.35
2017-10-02T04:36:16.868Z,12.38
2017-10-02T04:38:44.323Z,12.45
2017-10-02T04:41:11.790Z,12.40
2017-10-02T04:43:39.238Z,12.45
2017-10-02T04:46:06.738Z,12.50
2017-10-02T04:48:34.195Z,12.51
2017-10-02T04:51:01.658Z,12.55
2017-10-02T04:53:29.144Z,12.63
2017-10-02T04:55:56.607Z,12.68
2017-10-02T04:58:24.123Z,12.68
2017-10-02T05:00:51.579Z,12.65
2017-10-02T05:03:19.067Z,12.64
2017-10-02T05:05:46.532Z,12.67
2017-10-02T05:08:14.376Z,12.67
2017-10-02T05:10:41.844Z,12.66
2017-10-02T05:13:09.377Z,12.59
2017-10-02T05:15:36.858Z,12.60
2017-10-02T05:18:04.428Z,12.60
2017-10-02T05:20:31.949Z,12.60
2017-10-02T05:22:59.523Z,12.59
2017-10-02T05:25:26.995Z,12.58
2017-10-02T05:27:54.478Z,12.61
2017-10-02T05:30:21.948Z,12.69
2017-10-02T05:32:49.414Z,12.67
2017-10-02T05:35:16.913Z,12.63
2017-10-02T05:37:44.412Z,12.60
2017-10-02T05:40:11.877Z,12.58
2017-10-02T05:42:39.387Z,12.61
2017-10-02T05:45:06.861Z,12.63
2017-10-02T05:47:34.324Z,12.64
2017-10-02T05:50:01.799Z,12.61
2017-10-02T05:52:29.315Z,12.60
2017-10-02T05:54:56.879Z,12.60
2017-10-02T05:57:27.016Z,12.60
2017-10-02T05:59:54.498Z,12.64
2017-10-02T06:02:21.968Z,12.63
2017-10-02T06:04:49.418Z,12.65
2017-10-02T06:07:16.917Z,12.63
2017-10-02T06:09:44.393Z,12.59
2017-10-02T06:12:11.861Z,12.55
2017-10-02T06:14:39.336Z,12.47
2017-10-02T06:17:06.851Z,12.43
2017-10-02T06:19:34.343Z,12.41
2017-10-02T06:22:01.815Z,12.37
2017-10-02T06:24:29.318Z,12.33
2017-10-02T06:26:56.790Z,12.32
2017-10-02T06:29:24.299Z,12.31
2017-10-02T06:31:51.767Z,12.29
2017-10-02T06:34:19.267Z,12.32
2017-10-02T06:36:46.742Z,12.29
2017-10-02T06:39:14.210Z,12.29
2017-10-02T06:41:41.679Z,12.29
2017-10-02T06:44:09.145Z,12.25
2017-10-02T06:46:36.634Z,12.26
2017-10-02T06:49:04.105Z,12.29
2017-10-02T06:51:31.569Z,12.30
2017-10-02T06:53:59.049Z,12.31
2017-10-02T06:56:26.514Z,12.30
2017-10-02T06:58:54.013Z,12.28
2017-10-02T07:01:21.469Z,12.23
2017-10-02T07:03:48.963Z,12.31
2017-10-02T07:06:16.436Z,12.32
2017-10-02T07:08:43.906Z,12.33
2017-10-02T07:11:11.419Z,12.37
2017-10-02T07:13:38.890Z,12.37
2017-10-02T07:16:06.448Z,12.40
2017-10-02T07:18:33.937Z,12.39
2017-10-02T07:21:01.436Z,12.42
2017-10-02T07:23:29.008Z,12.39
2017-10-02T07:25:56.466Z,12.40
2017-10-02T07:28:24.035Z,12.38
2017-10-02T07:30:51.584Z,12.40
2017-10-02T07:33:19.066Z,12.35
2017-10-02T07:35:46.562Z,12.39
2017-10-02T07:38:14.015Z,12.45
2017-10-02T07:40:41.509Z,12.47
2017-10-02T07:43:09.100Z,12.54
2017-10-02T07:45:36.639Z,12.46
2017-10-02T07:48:04.193Z,12.52
2017-10-02T07:50:31.656Z,12.50
2017-10-02T07:52:59.133Z,12.54
2017-10-02T07:55:26.595Z,12.56
2017-10-02T07:57:54.979Z,12.52
2017-10-02T08:00:22.457Z,12.50
2017-10-02T08:02:49.950Z,12.55
2017-10-02T08:05:17.577Z,12.50
2017-10-02T08:07:45.062Z,12.52
2017-10-02T08:10:12.576Z,12.55
2017-10-02T08:12:40.098Z,12.61
2017-10-02T08:15:07.586Z,12.68
2017-10-02T08:17:35.115Z,12.68
2017-10-02T08:20:02.624Z,12.72
2017-10-02T08:22:30.094Z,12.77
2017-10-02T08:24:57.546Z,12.73
2017-10-02T08:27:25.037Z,12.82
2017-10-02T08:29:52.488Z,12.93
2017-10-02T08:32:20.070Z,12.95
2017-10-02T08:34:47.544Z,13.03
2017-10-02T08:37:15.056Z,13.03
2017-10-02T08:39:42.528Z,13.09
2017-10-02T08:42:10.021Z,13.12
2017-10-02T08:44:37.516Z,13.16
2017-10-02T08:47:04.971Z,13.23
2017-10-02T08:49:32.479Z,13.29
2017-10-02T08:51:59.949Z,13.30
2017-10-02T08:54:27.463Z,13.33
2017-10-02T08:56:54.942Z,13.37
2017-10-02T08:59:22.492Z,13.44
2017-10-02T09:01:49.957Z,13.46
2017-10-02T09:04:17.491Z,13.49
2017-10-02T09:06:45.283Z,13.51
2017-10-02T09:09:12.756Z,13.56
2017-10-02T09:11:40.240Z,13.54
2017-10-02T09:14:07.741Z,13.56
2017-10-02T09:16:35.215Z,13.60
2017-10-02T09:19:02.689Z,13.62
2017-10-02T09:21:30.156Z,13.68
2017-10-02T09:23:57.628Z,13.73
2017-10-02T09:26:25.186Z,13.77
2017-10-02T09:28:52.667Z,13.82
2017-10-02T09:31:20.167Z,13.98
2017-10-02T09:33:47.648Z,13.95
2017-10-02T09:36:15.124Z,14.10
2017-10-02T09:38:42.583Z,14.19
2017-10-02T09:41:10.031Z,14.19
2017-10-02T09:43:37.513Z,14.23
2017-10-02T09:46:04.965Z,14.38
2017-10-02T09:48:32.553Z,14.32
2017-10-02T09:51:00.044Z,14.35
2017-10-02T09:53:27.596Z,14.37
2017-10-02T09:55:55.064Z,14.34
2017-10-02T09:58:22.799Z,14.41
2017-10-02T10:00:50.259Z,14.53
2017-10-02T10:03:17.739Z,14.59
2017-10-02T10:05:45.222Z,14.58
2017-10-02T10:08:12.685Z,14.66
2017-10-02T10:10:40.162Z,14.66
2017-10-02T10:13:07.642Z,14.76
2017-10-02T10:15:35.422Z,14.74
2017-10-02T10:18:02.961Z,14.81
2017-10-02T10:20:30.435Z,14.86
2017-10-02T10:22:57.908Z,14.98
2017-10-02T10:25:25.382Z,14.98
2017-10-02T10:27:52.860Z,15.11
2017-10-02T10:30:20.592Z,15.07
2017-10-02T10:32:48.094Z,15.03
2017-10-02T10:35:15.568Z,15.18
2017-10-02T10:37:43.037Z,15.23
2017-10-02T10:40:10.517Z,15.23
2017-10-02T10:42:37.978Z,15.26
2017-10-02T10:45:05.458Z,15.32
2017-10-02T10:47:32.930Z,15.35
2017-10-02T10:50:00.532Z,15.40
2017-10-02T10:52:28.084Z,15.43
2017-10-02T10:54:55.566Z,15.44
2017-10-02T10:57:23.041Z,15.49
2017-10-02T10:59:50.562Z,15.64
2017-10-02T11:02:18.049Z,15.55
2017-10-02T11:04:45.580Z,15.60
2017-10-02T11:07:13.134Z,15.51
2017-10-02T11:09:40.614Z,15.56
2017-10-02T11:12:08.069Z,15.62
2017-10-02T11:14:35.550Z,15.61
2017-10-02T11:17:03.023Z,15.62
2017-10-02T11:19:30.487Z,15.65
2017-10-02T11:21:57.943Z,15.64
2017-10-02T11:24:25.419Z,15.68
2017-10-02T11:26:52.885Z,15.65
2017-10-02T11:29:20.379Z,15.67
2017-10-02T11:31:47.840Z,15.70
2017-10-02T11:34:15.392Z,15.62
2017-10-02T11:36:42.871Z,15.55
2017-10-02T11:39:10.325Z,15.55
2017-10-02T11:41:37.803Z,15.55
2017-10-02T11:44:05.273Z,15.56
2017-10-02T11:46:32.743Z,15.60
2017-10-02T11:49:00.211Z,15.60
2017-10-02T11:51:27.696Z,15.56
2017-10-02T11:53:55.162Z,15.67
2017-10-02T11:56:22.681Z,15.69
2017-10-02T11:58:50.169Z,15.72
2017-10-02T12:01:17.702Z,15.75
2017-10-02T12:03:45.189Z,15.80
2017-10-02T12:06:12.671Z,15.81
2017-10-02T12:08:40.143Z,15.77
2017-10-02T12:11:07.631Z,15.84
2017-10-02T12:13:35.090Z,15.91
2017-10-02T12:16:02.567Z,15.92
2017-10-02T12:18:30.043Z,15.97
2017-10-02T12:20:58.138Z,15.94
2017-10-02T12:23:25.605Z,15.92
2017-10-02T12:25:53.082Z,16.00
2017-10-02T12:28:20.600Z,16.02
2017-10-02T12:30:48.068Z,15.98
2017-10-02T12:33:15.541Z,16.06
2017-10-02T12:35:43.003Z,16.07
2017-10-02T12:38:10.503Z,16.08
2017-10-02T12:40:37.965Z,16.08
2017-10-02T12:43:05.454Z,16.10
2017-10-02T12:45:32.941Z,16.14
2017-10-02T12:48:00.406Z,16.14
2017-10-02T12:50:27.964Z,16.09
2017-10-02T12:52:55.460Z,16.15
2017-10-02T12:55:22.940Z,16.25
2017-10-02T12:57:50.405Z,16.24
2017-10-02T13:00:17.869Z,16.24
2017-10-02T13:02:45.347Z,16.37
2017-10-02T13:05:12.978Z,16.39
2017-10-02T13:07:40.457Z,16.20
2017-10-02T13:10:07.921Z,16.20
2017-10-02T13:12:35.495Z,16.18
2017-10-02T13:15:02.996Z,16.23
2017-10-02T13:17:30.450Z,16.24
2017-10-02T13:19:57.922Z,16.35
2017-10-02T13:22:25.427Z,16.49
2017-10-02T13:24:52.990Z,16.44
2017-10-02T13:27:20.451Z,16.56
2017-10-02T13:29:48.448Z,16.56
2017-10-02T13:32:15.941Z,16.60
2017-10-02T13:34:43.393Z,16.52
2017-10-02T13:37:10.906Z,16.57
2017-10-02T13:39:38.432Z,16.61
2017-10-02T13:42:05.902Z,16.59
2017-10-02T13:44:33.379Z,16.59
2017-10-02T13:47:00.843Z,16.55
2017-10-02T13:49:28.455Z,16.56
2017-10-02T13:51:55.912Z,16.59
2017-10-02T13:54:23.418Z,16.52
2017-10-02T13:56:50.889Z,16.61
2017-10-02T13:59:18.345Z,16.54
2017-10-02T14:01:45.819Z,16.64
2017-10-02T14:04:13.286Z,16.49
2017-10-02T14:06:40.764Z,16.51
2017-10-02T14:09:08.219Z,16.47
2017-10-02T14:11:35.722Z,16.48
2017-10-02T14:14:03.192Z,16.55
2017-10-02T14:16:30.677Z,16.53
2017-10-02T14:18:58.142Z,16.66
2017-10-02T14:21:25.600Z,16.80
2017-10-02T14:23:53.086Z,16.81
2017-10-02T14:26:20.543Z,16.79
2017-10-02T14:28:48.105Z,16.90
2017-10-02T14:31:15.581Z,16.86
2017-10-02T14:33:43.055Z,16.89
2017-10-02T14:36:10.536Z,17.05
2017-10-02T14:38:38.016Z,17.05
2017-10-02T14:41:05.502Z,17.10
2017-10-02T14:43:32.970Z,17.03
2017-10-02T14:46:00.494Z,17.08
2017-10-02T14:48:27.982Z,17.01
2017-10-02T14:50:55.532Z,16.95
2017-10-02T14:53:23.016Z,16.91
2017-10-02T14:55:50.489Z,16.88
2017-10-02T14:58:18.626Z,16.76
2017-10-02T15:00:52.921Z,16.91
2017-10-02T15:12:10.113Z,16.82
2017-10-02T15:14:37.652Z,16.91
2017-10-02T15:17:05.157Z,16.83
2017-10-02T15:19:32.987Z,16.85
2017-10-02T15:22:00.449Z,16.80
2017-10-02T15:24:27.925Z,16.77
2017-10-02T15:26:55.420Z,16.94
2017-10-02T15:29:23.073Z,16.96
2017-10-02T15:31:50.578Z,16.98
2017-10-02T15:34:18.062Z,16.91
2017-10-02T15:36:45.530Z,17.02
2017-10-02T15:39:12.988Z,17.06
2017-10-02T15:41:40.711Z,17.16
2017-10-02T15:44:08.208Z,17.14
2017-10-02T15:46:35.678Z,17.16
2017-10-02T15:49:03.164Z,17.25
2017-10-02T15:51:30.642Z,17.20
2017-10-02T15:53:58.130Z,17.26
2017-10-02T15:56:25.602Z,17.25
2017-10-02T15:58:53.069Z,17.23
2017-10-02T16:01:20.543Z,17.13
2017-10-02T16:03:48.091Z,17.09
2017-10-02T16:06:15.560Z,17.35
2017-10-02T16:08:43.050Z,17.26
2017-10-02T16:11:10.525Z,17.29
2017-10-02T16:13:38.366Z,17.33
2017-10-02T16:16:05.923Z,17.36
2017-10-02T16:18:33.387Z,17.21
2017-10-02T16:21:00.860Z,17.26
2017-10-02T16:23:28.399Z,17.26
2017-10-02T16:25:56.169Z,17.25
2017-10-02T16:28:23.638Z,17.18
2017-10-02T16:30:51.108Z,17.19
2017-10-02T16:33:18.572Z,17.07
2017-10-02T16:35:46.054Z,17.20
2017-10-02T16:38:13.525Z,17.23
2017-10-02T16:40:41.006Z,17.20
2017-10-02T16:43:08.578Z,17.12
2017-10-02T16:45:36.062Z,17.15
2017-10-02T16:48:03.891Z,17.11
2017-10-02T16:50:31.351Z,17.11
2017-10-02T16:52:58.830Z,17.21
2017-10-02T16:55:26.302Z,17.18
2017-10-02T16:57:53.764Z,17.20
2017-10-02T17:00:21.234Z,17.03
2017-10-02T17:02:48.691Z,17.15
2017-10-02T17:05:16.173Z,17.12
2017-10-02T17:07:43.650Z,17.12
2017-10-02T17:10:11.408Z,17.00
2017-10-02T17:12:38.863Z,17.00
2017-10-02T17:15:06.320Z,16.95
2017-10-02T17:17:33.803Z,16.97
2017-10-02T17:20:01.263Z,16.86
2017-10-02T17:22:28.898Z,16.87
2017-10-02T17:24:56.386Z,16.75
2017-10-02T17:27:23.887Z,16.75
2017-10-02T17:29:51.383Z,16.66
2017-10-02T17:32:18.860Z,16.61
2017-10-02T17:34:46.336Z,16.59
2017-10-02T17:37:14.564Z,16.59
2017-10-02T17:39:42.031Z,16.59
2017-10-02T17:42:09.488Z,16.47
2017-10-02T17:44:36.959Z,16.44
2017-10-02T17:47:05.303Z,16.46
2017-10-02T17:49:32.819Z,16.41
2017-10-02T17:52:00.315Z,16.40
2017-10-02T17:54:27.886Z,16.35
2017-10-02T17:56:55.351Z,16.29
2017-10-02T17:59:22.819Z,16.39
2017-10-02T18:01:50.278Z,16.41
2017-10-02T18:04:17.743Z,16.39
2017-10-02T18:06:45.223Z,16.39
2017-10-02T18:09:12.676Z,16.47
2017-10-02T18:11:40.148Z,16.44
2017-10-02T18:14:07.616Z,16.39
2017-10-02T18:16:35.085Z,16.36
2017-10-02T18:19:02.549Z,16.44
2017-10-02T18:21:30.333Z,16.51
2017-10-02T18:23:57.801Z,16.46
2017-10-02T18:26:25.280Z,16.45
2017-10-02T18:28:52.779Z,16.46
2017-10-02T18:31:20.296Z,16.42
2017-10-02T18:33:47.795Z,16.44
2017-10-02T18:36:15.309Z,16.37
2017-10-02T18:38:42.772Z,16.35
2017-10-02T18:41:10.306Z,16.39
2017-10-02T18:43:38.182Z,16.19
2017-10-02T18:46:05.656Z,16.19
2017-10-02T18:48:33.998Z,16.28
2017-10-02T18:51:02.252Z,16.30
2017-10-02T18:53:29.752Z,16.25
2017-10-02T18:55:57.239Z,16.34
2017-10-02T18:58:24.750Z,16.28
2017-10-02T19:00:52.994Z,16.27
2017-10-02T19:03:20.451Z,16.25
2017-10-02T19:05:48.240Z,16.26
2017-10-02T19:08:15.756Z,16.23
2017-10-02T19:10:43.222Z,16.23
2017-10-02T19:13:10.716Z,16.17
2017-10-02T19:15:38.230Z,16.19
2017-10-02T19:18:05.727Z,16.26
2017-10-02T19:20:33.246Z,16.14
2017-10-02T19:23:00.748Z,16.13
2017-10-02T19:25:28.213Z,16.17
2017-10-02T19:27:55.693Z,16.21
2017-10-02T19:30:23.175Z,16.21
2017-10-02T19:32:50.646Z,16.10
2017-10-02T19:35:18.109Z,16.12
2017-10-02T19:37:45.581Z,16.10
2017-10-02T19:40:13.723Z,16.12
2017-10-02T19:42:41.538Z,16.15
2017-10-02T19:45:09.106Z,16.19
2017-10-02T19:47:36.569Z,16.11
2017-10-02T19:50:04.081Z,16.15
2017-10-02T19:52:31.537Z,16.18
2017-10-02T19:54:59.035Z,16.03
2017-10-02T19:57:26.490Z,16.04
2017-10-02T19:59:53.994Z,16.13
2017-10-02T20:02:21.456Z,16.09
2017-10-02T20:04:49.230Z,16.08
2017-10-02T20:07:16.823Z,16.02
2017-10-02T20:09:44.411Z,16.03
2017-10-02T20:12:11.895Z,16.08
2017-10-02T20:14:39.353Z,15.96
2017-10-02T20:17:06.827Z,15.97
2017-10-02T20:19:34.287Z,15.96
2017-10-02T20:22:01.766Z,16.07
2017-10-02T20:24:29.347Z,16.06
2017-10-02T20:26:56.849Z,15.97
2017-10-02T20:29:24.307Z,15.96
2017-10-02T20:31:52.130Z,16.04
2017-10-02T20:34:20.048Z,16.08
2017-10-02T20:36:47.541Z,16.05
2017-10-02T20:39:15.011Z,16.06
2017-10-02T20:41:42.475Z,15.98
2017-10-02T20:44:09.977Z,15.96
2017-10-02T20:46:37.442Z,16.06
2017-10-02T20:49:04.913Z,15.91
2017-10-02T20:51:32.495Z,15.94
2017-10-02T20:53:59.998Z,15.86
2017-10-02T20:56:27.512Z,15.83
2017-10-02T20:58:55.000Z,15.80
2017-10-02T21:01:22.477Z,15.78
2017-10-02T21:03:49.926Z,15.83
2017-10-02T21:06:17.781Z,15.70
2017-10-02T21:08:45.244Z,15.74
2017-10-02T21:11:12.713Z,15.70
2017-10-02T21:13:40.188Z,15.63
2017-10-02T21:16:07.708Z,15.60
2017-10-02T21:18:35.283Z,15.61
2017-10-02T21:21:02.803Z,15.60
2017-10-02T21:23:30.268Z,15.55
2017-10-02T21:25:57.720Z,15.49
2017-10-02T21:28:25.450Z,15.47
2017-10-02T21:30:52.917Z,15.46
2017-10-02T21:33:20.412Z,15.42
2017-10-02T21:35:47.894Z,15.41
2017-10-02T21:38:15.373Z,15.40
2017-10-02T21:40:42.841Z,15.35
2017-10-02T21:43:10.308Z,15.33
2017-10-02T21:45:37.824Z,15.43
2017-10-02T21:48:05.286Z,15.34
2017-10-02T21:50:32.754Z,15.38
2017-10-02T21:53:00.222Z,15.37
2017-10-02T21:55:28.012Z,15.37
2017-10-02T21:57:55.502Z,15.34
2017-10-02T22:00:23.021Z,15.34
2017-10-02T22:02:50.530Z,15.38
2017-10-02T22:05:17.983Z,15.46
2017-10-02T22:07:45.455Z,15.49
2017-10-02T22:10:12.926Z,15.43
2017-10-02T22:12:40.406Z,15.35
2017-10-02T22:15:07.876Z,15.33
2017-10-02T22:17:35.365Z,15.37
2017-10-02T22:20:02.881Z,15.35
2017-10-02T22:22:30.712Z,15.37
2017-10-02T22:24:58.722Z,15.28
2017-10-02T22:27:26.195Z,15.23
2017-10-02T22:29:53.695Z,15.27
2017-10-02T22:32:21.203Z,15.30
2017-10-02T22:34:48.686Z,15.32
2017-10-02T22:37:16.200Z,15.30
2017-10-02T22:39:43.969Z,15.29
2017-10-02T22:42:11.435Z,15.12
2017-10-02T22:44:38.907Z,15.10
2017-10-02T22:47:06.458Z,15.18
2017-10-02T22:49:33.909Z,15.08
2017-10-02T22:52:01.367Z,15.08
2017-10-02T22:54:28.916Z,15.13
2017-10-02T22:56:56.424Z,15.13
2017-10-02T22:59:23.939Z,15.00
2017-10-02T23:01:51.699Z,14.98
2017-10-02T23:04:19.174Z,15.04
2017-10-02T23:06:46.716Z,15.06
2017-10-02T23:09:14.266Z,15.00
2017-10-02T23:11:41.727Z,15.04
2017-10-02T23:14:09.200Z,14.93
2017-10-02T23:16:36.831Z,14.73
2017-10-02T23:19:04.614Z,14.59
2017-10-02T23:21:32.079Z,14.50
2017-10-02T23:23:59.542Z,14.35
2017-10-02T23:26:27.020Z,14.12
2017-10-02T23:28:54.477Z,13.97
2017-10-02T23:31:21.953Z,13.79
2017-10-02T23:33:49.454Z,13.69
2017-10-02T23:36:16.935Z,13.59
2017-10-02T23:38:44.417Z,13.56
2017-10-02T23:41:12.243Z,13.53
2017-10-02T23:43:39.723Z,13.45
2017-10-02T23:46:07.213Z,13.31
2017-10-02T23:48:34.704Z,13.25
2017-10-02T23:51:02.170Z,13.22
2017-10-02T23:53:29.635Z,13.16
2017-10-02T23:55:57.128Z,13.15
2017-10-02T23:58:24.600Z,13.10
